Time;durP1;ratioP1;P1;durP2;ratioP2;P2;SDS_P1;SDS_P2;PMS_P1;PMS_P2;Temp;Humidity;BMP_temperature;BMP_pressure;BME280_temperature;BME280_humidity;BME280_pressure;Samples;Min_cycle;Max_cycle;Signal;HPM_P1;HPM_P2
2022/12/17 13:06:53;;;;;;;13.18;5.45;;;3.00;99.90;;;;;;5047113;28;20056;-94
2022/12/17 13:09:36;;;;;;;10.15;4.97;;;3.00;99.90;;;;;;5053769;28;20487;-95
2022/12/17 13:12:14;;;;;;;11.45;6.60;;;3.00;99.90;;;;;;5054943;28;20026;-95
2022/12/17 13:15:06;;;;;;;12.43;6.82;;;3.00;99.90;;;;;;5072765;28;20021;-95
2022/12/17 13:17:54;;;;;;;10.82;6.22;;;3.00;99.90;;;;;;5055098;28;20042;-95
2022/12/17 13:20:29;;;;;;;9.10;5.47;;;3.00;99.90;;;;;;5063612;28;20045;-95
2022/12/17 13:23:25;;;;;;;10.35;5.80;;;2.90;99.90;;;;;;5054523;28;20029;-92
2022/12/17 13:26:13;;;;;;;9.35;5.70;;;3.00;99.90;;;;;;5052681;28;20026;-95
2022/12/17 13:28:40;;;;;;;9.35;5.78;;;3.00;99.90;;;;;;5045532;28;20107;-95
2022/12/17 13:31:25;;;;;;;16.17;7.05;;;3.00;99.90;;;;;;5050766;28;20013;-94
2022/12/17 13:34:16;;;;;;;10.18;6.55;;;3.10;99.90;;;;;;5058859;28;20026;-94
2022/12/17 13:37:06;;;;;;;11.02;6.13;;;3.00;99.90;;;;;;5045344;28;20103;-95
2022/12/17 13:39:43;;;;;;;11.10;6.72;;;3.10;99.90;;;;;;5047010;28;20034;-95
2022/12/17 13:42:21;;;;;;;10.35;6.43;;;3.10;99.90;;;;;;5038044;28;20021;-93
2022/12/17 13:45:14;;;;;;;13.23;7.70;;;3.10;99.90;;;;;;5034759;28;20064;-93
2022/12/17 13:47:40;;;;;;;9.82;6.63;;;3.10;99.90;;;;;;5054044;28;20049;-96
2022/12/17 13:50:33;;;;;;;10.02;7.18;;;3.10;99.90;;;;;;5050512;28;20065;-96
2022/12/17 13:53:11;;;;;;;10.50;7.25;;;3.10;99.90;;;;;;5049786;28;20045;-93
2022/12/17 13:55:40;;;;;;;12.02;7.50;;;3.10;99.90;;;;;;5056191;28;20048;-94
2022/12/17 13:58:22;;;;;;;16.25;9.43;;;3.10;99.90;;;;;;5044281;28;20053;-96
2022/12/17 14:00:48;;;;;;;12.50;7.40;;;3.10;99.90;;;;;;5053776;28;20021;-94
2022/12/17 14:03:21;;;;;;;15.93;9.50;;;3.10;99.90;;;;;;5050500;28;20030;-94
2022/12/17 14:05:48;;;;;;;11.07;7.03;;;3.10;99.90;;;;;;5032733;28;20048;-95
2022/12/17 14:08:18;;;;;;;10.13;6.95;;;3.10;99.90;;;;;;5048497;28;20033;-95
2022/12/17 14:13:47;;;;;;;14.45;7.47;;;3.10;99.90;;;;;;5052264;28;20025;-95
2022/12/17 14:16:28;;;;;;;12.30;7.68;;;3.20;99.90;;;;;;5038011;28;20025;-96
2022/12/17 14:18:57;;;;;;;16.05;9.07;;;3.20;99.90;;;;;;5053842;28;20026;-96
2022/12/17 14:21:33;;;;;;;12.85;7.70;;;3.20;99.90;;;;;;5053876;28;20057;-94
2022/12/17 14:28:23;;;;;;;11.45;7.47;;;3.20;99.90;;;;;;5013489;28;20046;-96
2022/12/17 14:31:29;;;;;;;16.80;10.07;;;3.10;99.90;;;;;;5016526;28;20050;-96
2022/12/17 14:34:10;;;;;;;20.23;11.40;;;3.20;99.90;;;;;;4957951;28;20035;-95
2022/12/17 14:37:02;;;;;;;24.23;13.18;;;3.10;99.90;;;;;;4973104;28;20075;-93
2022/12/17 14:40:08;;;;;;;16.67;10.20;;;3.10;99.90;;;;;;4969402;28;20058;-95
2022/12/17 14:43:27;;;;;;;15.50;9.10;;;3.10;99.90;;;;;;4962096;28;20023;-95
2022/12/17 14:46:19;;;;;;;16.17;8.52;;;3.10;99.90;;;;;;4975109;28;20031;-96
2022/12/17 14:49:01;;;;;;;17.38;10.18;;;3.10;99.90;;;;;;4971445;28;20147;-96
2022/12/17 14:51:36;;;;;;;17.08;8.02;;;3.10;99.90;;;;;;4974860;28;20035;-96
2022/12/17 14:54:30;;;;;;;17.30;7.65;;;3.10;99.90;;;;;;4974481;29;20027;-95
2022/12/17 14:56:59;;;;;;;14.80;8.20;;;3.10;99.90;;;;;;4957675;28;20043;-91
2022/12/17 14:59:38;;;;;;;16.65;9.23;;;3.10;99.90;;;;;;4976647;28;20027;-96
2022/12/17 15:02:45;;;;;;;20.27;9.63;;;3.00;99.90;;;;;;4979465;28;20086;-96
2022/12/17 15:05:17;;;;;;;17.00;8.80;;;3.00;99.90;;;;;;4980784;28;20050;-96
2022/12/17 15:07:44;;;;;;;12.40;6.55;;;3.10;99.90;;;;;;4977950;28;20034;-94
2022/12/17 15:10:15;;;;;;;17.15;6.60;;;3.10;99.90;;;;;;5015540;28;20046;-95
2022/12/17 15:12:42;;;;;;;8.57;5.45;;;3.10;99.90;;;;;;5051123;28;20006;-96
2022/12/17 15:15:13;;;;;;;13.52;6.88;;;3.10;99.90;;;;;;5054047;28;20021;-96
2022/12/17 15:17:39;;;;;;;;;;;3.10;99.90;;;;;;5057170;28;20094;-95
2022/12/17 15:20:08;;;;;;;11.98;5.82;;;3.10;99.90;;;;;;5049158;28;19909;-93
2022/12/17 15:22:36;;;;;;;12.65;5.82;;;3.10;99.90;;;;;;5030440;28;20106;-95
2022/12/17 15:25:02;;;;;;;10.85;5.55;;;3.10;99.90;;;;;;5041854;28;20053;-95
2022/12/17 15:27:31;;;;;;;21.08;10.05;;;3.10;99.90;;;;;;5041346;28;20048;-95
2022/12/17 15:29:56;;;;;;;15.85;7.82;;;3.10;99.90;;;;;;5039268;28;20029;-95
2022/12/17 15:32:24;;;;;;;19.95;10.02;;;3.10;99.90;;;;;;5037699;28;20048;-94
2022/12/17 15:34:52;;;;;;;18.00;7.63;;;3.10;99.90;;;;;;5039561;28;20052;-95
2022/12/17 15:37:19;;;;;;;13.85;6.82;;;3.20;99.90;;;;;;5046900;28;20226;-93
2022/12/17 15:39:45;;;;;;;18.48;7.90;;;3.10;99.90;;;;;;5048405;28;20037;-95
2022/12/17 15:44:54;;;;;;;13.48;6.97;;;3.10;99.90;;;;;;5044402;28;20169;-95
2022/12/17 15:47:22;;;;;;;16.65;8.52;;;3.10;99.90;;;;;;5048847;28;20033;-94
2022/12/17 15:49:47;;;;;;;17.83;7.50;;;3.10;99.90;;;;;;5046257;28;20148;-96
2022/12/17 15:52:19;;;;;;;15.07;7.88;;;3.10;99.90;;;;;;5048172;28;20026;-94
2022/12/17 15:54:46;;;;;;;15.75;7.95;;;3.20;99.90;;;;;;5053017;28;20025;-94
2022/12/17 15:57:12;;;;;;;15.18;7.68;;;3.10;99.90;;;;;;5049574;28;20025;-96
2022/12/17 15:59:38;;;;;;;13.88;7.38;;;3.10;99.90;;;;;;5026161;28;20093;-95
2022/12/17 16:02:04;;;;;;;11.80;7.38;;;3.10;99.90;;;;;;5046750;28;20037;-96
2022/12/17 16:04:29;;;;;;;15.95;8.25;;;3.10;99.90;;;;;;5026832;28;20044;-94
2022/12/17 16:06:59;;;;;;;13.77;7.55;;;3.10;99.90;;;;;;5039248;28;20037;-94
2022/12/17 16:09:26;;;;;;;13.88;8.00;;;3.10;99.90;;;;;;5043289;28;20301;-94
2022/12/17 16:11:56;;;;;;;15.15;7.50;;;3.10;99.90;;;;;;5040366;28;20091;-93
2022/12/17 16:14:22;;;;;;;11.55;7.85;;;3.10;99.90;;;;;;5023603;28;20029;-95
2022/12/17 16:16:49;;;;;;;13.63;6.53;;;3.10;99.90;;;;;;5043438;28;20033;-94
2022/12/17 16:19:14;;;;;;;12.80;7.05;;;3.10;99.90;;;;;;5043178;28;20068;-95
2022/12/17 16:21:40;;;;;;;13.30;7.53;;;3.10;99.90;;;;;;5045722;28;20534;-96
2022/12/17 16:24:06;;;;;;;13.52;7.25;;;3.10;99.90;;;;;;5042075;28;20018;-95
2022/12/17 16:26:32;;;;;;;19.05;8.63;;;3.10;99.90;;;;;;5044864;28;20033;-95
2022/12/17 16:28:58;;;;;;;18.85;8.13;;;3.20;99.90;;;;;;5050274;28;20042;-92
2022/12/17 16:31:27;;;;;;;16.35;8.05;;;3.20;99.90;;;;;;5053639;28;20032;-95
2022/12/17 16:33:54;;;;;;;24.85;11.70;;;3.20;99.90;;;;;;5049480;28;20033;-96
2022/12/17 16:36:22;;;;;;;15.50;7.03;;;3.30;99.90;;;;;;5053723;28;20025;-94
2022/12/17 16:38:51;;;;;;;24.67;10.50;;;3.20;99.90;;;;;;5055672;28;20025;-96
2022/12/17 16:41:18;;;;;;;17.48;8.70;;;3.30;99.90;;;;;;5041420;28;20021;-95
2022/12/17 16:43:45;;;;;;;16.05;8.88;;;3.30;99.90;;;;;;5056635;28;20052;-96
2022/12/17 16:46:53;;;;;;;22.77;9.60;;;3.30;99.90;;;;;;5057722;28;20014;-92
2022/12/17 16:49:21;;;;;;;23.08;9.48;;;3.40;99.90;;;;;;5054903;28;20049;-95
2022/12/17 16:51:51;;;;;;;11.13;6.68;;;3.40;99.90;;;;;;5051326;28;20037;-95
2022/12/17 16:54:26;;;;;;;15.55;9.65;;;3.40;99.90;;;;;;5030578;28;20046;-93
2022/12/17 16:56:54;;;;;;;15.63;10.55;;;3.40;99.90;;;;;;5017820;28;20038;-95
2022/12/17 16:59:20;;;;;;;15.52;9.15;;;3.40;99.90;;;;;;5029271;28;20026;-94
2022/12/17 17:01:53;;;;;;;15.95;9.07;;;3.40;99.90;;;;;;5045913;28;20026;-94
2022/12/17 17:04:22;;;;;;;17.15;9.98;;;3.40;99.90;;;;;;5042939;28;20089;-96
2022/12/17 17:06:54;;;;;;;24.38;13.05;;;3.30;99.90;;;;;;5050409;28;20057;-94
2022/12/17 17:09:21;;;;;;;14.27;9.45;;;3.30;99.90;;;;;;5052306;28;20041;-95
2022/12/17 17:11:57;;;;;;;20.23;10.60;;;3.30;99.90;;;;;;5057650;28;20044;-95
2022/12/17 17:14:24;;;;;;;18.27;9.32;;;3.30;99.90;;;;;;5058102;28;20029;-96
2022/12/17 17:16:50;;;;;;;19.05;11.40;;;3.30;99.90;;;;;;5066085;28;20081;-94
2022/12/17 17:19:18;;;;;;;16.52;9.95;;;3.20;99.90;;;;;;5048698;28;20027;-92
2022/12/17 17:21:58;;;;;;;19.73;12.02;;;3.20;99.90;;;;;;5055800;28;20033;-94
2022/12/17 17:24:24;;;;;;;19.00;10.67;;;3.20;99.90;;;;;;5054298;28;20005;-96
2022/12/17 17:27:14;;;;;;;20.35;11.00;;;3.20;99.90;;;;;;5058117;28;20085;-95
2022/12/17 17:29:45;;;;;;;22.98;12.52;;;3.20;99.90;;;;;;5058060;28;20041;-95
2022/12/17 17:32:20;;;;;;;20.55;11.43;;;3.20;99.90;;;;;;5046620;28;20013;-93
2022/12/17 17:34:45;;;;;;;19.85;10.50;;;3.10;99.90;;;;;;5057447;28;20040;-92
2022/12/17 17:37:12;;;;;;;40.42;15.23;;;3.10;99.90;;;;;;5057484;28;20021;-95
2022/12/17 17:39:41;;;;;;;34.53;14.00;;;3.10;99.90;;;;;;5057393;28;20072;-95
2022/12/17 17:42:09;;;;;;;35.70;13.80;;;3.20;99.90;;;;;;5055340;28;20025;-91
2022/12/17 17:44:35;;;;;;;23.55;12.18;;;3.20;99.90;;;;;;5057779;28;20018;-91
2022/12/17 17:47:03;;;;;;;21.15;11.82;;;3.30;99.90;;;;;;5058203;28;20029;-94
2022/12/17 17:49:29;;;;;;;17.33;10.73;;;3.20;99.90;;;;;;5056682;28;20036;-95
2022/12/17 17:54:51;;;;;;;22.52;10.63;;;3.30;99.90;;;;;;5056192;28;20037;-92
2022/12/17 17:57:22;;;;;;;19.50;10.68;;;3.30;99.90;;;;;;5055587;28;20017;-90
2022/12/17 17:59:48;;;;;;;21.42;11.43;;;3.20;99.90;;;;;;5038404;28;20018;-95
2022/12/17 18:02:13;;;;;;;16.13;9.85;;;3.20;99.90;;;;;;5051959;28;20026;-94
2022/12/17 18:04:42;;;;;;;16.92;10.07;;;3.20;99.90;;;;;;5050565;28;20091;-96
2022/12/17 18:07:08;;;;;;;19.50;9.90;;;3.20;99.90;;;;;;5047377;28;20041;-95
2022/12/17 18:15:18;;;;;;;18.05;10.02;;;3.10;99.90;;;;;;5051858;28;20079;-94
2022/12/17 18:17:48;;;;;;;18.10;9.93;;;3.10;99.90;;;;;;5046549;28;20018;-95
2022/12/17 18:20:16;;;;;;;26.17;10.80;;;3.10;99.90;;;;;;5050167;28;20025;-96
2022/12/17 18:22:49;;;;;;;16.67;10.63;;;3.10;99.90;;;;;;5039227;28;20057;-95
2022/12/17 18:25:17;;;;;;;16.67;9.13;;;3.10;99.90;;;;;;5045412;28;20025;-92
2022/12/17 18:27:44;;;;;;;25.90;11.60;;;3.10;99.90;;;;;;5049227;28;20043;-92
2022/12/17 18:30:10;;;;;;;23.73;11.02;;;3.10;99.90;;;;;;5045500;28;20034;-94
2022/12/17 18:32:36;;;;;;;20.42;10.05;;;3.10;99.90;;;;;;5048703;28;20116;-95
2022/12/17 18:35:02;;;;;;;18.50;9.50;;;3.10;99.90;;;;;;5040789;28;20137;-94
2022/12/17 18:37:33;;;;;;;23.23;9.48;;;3.10;99.90;;;;;;5035247;28;20521;-96
2022/12/17 18:40:06;;;;;;;17.88;9.00;;;3.10;99.90;;;;;;5049205;28;20026;-94
2022/12/17 18:45:17;;;;;;;21.45;9.45;;;3.10;99.90;;;;;;5051704;28;20086;-95
2022/12/17 18:47:45;;;;;;;15.70;8.25;;;3.10;99.90;;;;;;5049525;28;20064;-95
2022/12/17 18:50:11;;;;;;;18.70;9.13;;;3.20;99.90;;;;;;5036717;28;20056;-96
2022/12/17 18:52:40;;;;;;;17.17;8.25;;;3.20;99.90;;;;;;5041548;28;20022;-96
2022/12/17 18:55:09;;;;;;;13.80;8.40;;;3.10;99.90;;;;;;5057126;28;20021;-95
2022/12/17 18:57:35;;;;;;;25.00;11.10;;;3.10;99.90;;;;;;5041232;28;20263;-95
2022/12/17 19:00:01;;;;;;;21.42;10.02;;;3.10;99.90;;;;;;5040647;28;20033;-93
2022/12/17 19:02:30;;;;;;;21.95;9.35;;;3.10;99.90;;;;;;5051008;28;20030;-95
2022/12/17 19:04:55;;;;;;;31.42;10.93;;;3.10;99.90;;;;;;5056739;28;20017;-92
2022/12/17 19:07:21;;;;;;;19.08;9.43;;;3.10;99.90;;;;;;5054851;28;20032;-94
2022/12/17 19:09:49;;;;;;;17.27;8.40;;;3.10;99.90;;;;;;5048475;28;20022;-94
2022/12/17 19:12:15;;;;;;;16.55;7.65;;;3.10;99.90;;;;;;5046801;28;20025;-95
2022/12/17 19:14:42;;;;;;;20.17;9.18;;;3.10;99.90;;;;;;5049948;28;20545;-94
2022/12/17 19:17:08;;;;;;;18.50;8.55;;;3.10;99.90;;;;;;5042233;28;20089;-94
2022/12/17 19:19:34;;;;;;;16.17;6.68;;;3.10;99.90;;;;;;5044304;28;20049;-92
2022/12/17 19:22:00;;;;;;;15.27;6.85;;;3.00;99.90;;;;;;5037071;28;20040;-96
2022/12/17 19:24:26;;;;;;;15.05;6.88;;;3.10;99.90;;;;;;5035754;28;20025;-95
2022/12/17 19:26:52;;;;;;;14.70;6.63;;;3.10;99.90;;;;;;5035904;28;20029;-95
2022/12/17 19:29:19;;;;;;;15.63;6.70;;;3.10;99.90;;;;;;5035182;28;20136;-93
2022/12/17 19:31:45;;;;;;;12.75;6.22;;;3.10;99.90;;;;;;5042610;28;20108;-94
2022/12/17 19:34:13;;;;;;;16.77;7.05;;;3.00;99.90;;;;;;5045919;28;20062;-94
2022/12/17 19:36:40;;;;;;;15.15;7.10;;;3.00;99.90;;;;;;5041951;28;20030;-93
2022/12/17 19:39:08;;;;;;;12.93;6.63;;;3.00;99.90;;;;;;5039459;28;20040;-95
2022/12/17 19:41:34;;;;;;;13.95;6.45;;;2.90;99.90;;;;;;5054410;28;20022;-94
2022/12/17 19:44:10;;;;;;;13.77;6.43;;;2.90;99.90;;;;;;5040506;28;20029;-96
2022/12/17 19:46:37;;;;;;;21.58;7.72;;;2.90;99.90;;;;;;5037073;28;20026;-94
2022/12/17 19:49:10;;;;;;;11.40;6.32;;;2.90;99.90;;;;;;5037299;28;20095;-95
2022/12/17 19:51:39;;;;;;;10.18;6.18;;;2.90;99.90;;;;;;5037932;28;20021;-95
2022/12/17 19:54:05;;;;;;;12.85;5.82;;;2.80;99.90;;;;;;5038340;28;20021;-93
2022/12/17 19:56:35;;;;;;;15.35;5.68;;;2.80;99.90;;;;;;5034681;28;20029;-93
2022/12/17 19:59:08;;;;;;;10.90;5.90;;;2.80;99.90;;;;;;5037316;28;20032;-96
2022/12/17 20:01:37;;;;;;;12.10;5.90;;;2.70;99.90;;;;;;5041215;28;20032;-95
2022/12/17 20:04:04;;;;;;;18.98;6.55;;;2.70;99.90;;;;;;5052257;28;20037;-93
2022/12/17 20:06:32;;;;;;;11.25;4.97;;;2.70;99.90;;;;;;5050105;28;20026;-94
2022/12/17 20:08:59;;;;;;;21.42;7.80;;;2.70;99.90;;;;;;5048982;28;20049;-94
2022/12/17 20:11:34;;;;;;;16.05;7.38;;;2.60;99.90;;;;;;5046626;28;20029;-94
2022/12/17 20:14:10;;;;;;;24.35;8.18;;;2.60;99.90;;;;;;5047444;28;20082;-93
2022/12/17 20:16:42;;;;;;;25.52;8.57;;;2.60;99.90;;;;;;5058289;28;20045;-93
2022/12/17 20:19:21;;;;;;;12.88;6.50;;;2.50;99.90;;;;;;5051372;28;20021;-94
2022/12/17 20:21:48;;;;;;;12.45;5.93;;;2.50;99.90;;;;;;5049635;28;20014;-92
2022/12/17 20:24:15;;;;;;;15.00;6.35;;;2.50;99.90;;;;;;5049583;28;20052;-93
2022/12/17 20:29:17;;;;;;;17.42;6.10;;;2.50;99.90;;;;;;5519666;22;20049;-93
2022/12/17 20:31:43;;;;;;;14.77;5.97;;;2.50;99.90;;;;;;5072075;28;20029;-92
2022/12/17 20:34:12;;;;;;;16.55;6.03;;;2.50;99.90;;;;;;5071473;28;20097;-93
2022/12/17 20:36:39;;;;;;;15.50;6.38;;;2.40;99.90;;;;;;5064318;28;20025;-94
2022/12/17 20:39:09;;;;;;;11.88;5.47;;;2.40;99.90;;;;;;5060693;28;20552;-92
2022/12/17 20:41:35;;;;;;;16.10;5.35;;;2.40;99.90;;;;;;5056610;28;20013;-93
2022/12/17 20:44:10;;;;;;;19.17;5.80;;;2.30;99.90;;;;;;5057175;28;20028;-94
2022/12/17 20:46:36;;;;;;;14.23;6.47;;;2.40;99.90;;;;;;5073066;28;20043;-94
2022/12/17 20:49:04;;;;;;;21.45;6.07;;;2.30;99.90;;;;;;5056492;28;20089;-95
2022/12/17 20:51:31;;;;;;;20.08;7.28;;;2.30;99.90;;;;;;5054338;28;20032;-94
2022/12/17 20:54:01;;;;;;;17.08;7.22;;;2.20;99.90;;;;;;5055205;28;20029;-93
2022/12/17 20:56:29;;;;;;;16.52;7.38;;;2.20;99.90;;;;;;5054370;28;20025;-94
2022/12/17 20:59:02;;;;;;;19.42;6.60;;;2.20;99.90;;;;;;5056277;28;20113;-92
2022/12/17 21:01:36;;;;;;;20.02;7.00;;;2.20;99.90;;;;;;5057045;28;20024;-94
2022/12/17 21:04:02;;;;;;;14.55;6.60;;;2.20;99.90;;;;;;5054599;28;20116;-92
2022/12/17 21:06:37;;;;;;;15.35;6.80;;;2.10;99.90;;;;;;5051925;28;20024;-95
2022/12/17 21:09:05;;;;;;;12.18;6.35;;;2.10;99.90;;;;;;5053992;28;20079;-94
2022/12/17 21:11:32;;;;;;;15.07;7.22;;;2.10;99.90;;;;;;5053892;28;20478;-92
2022/12/17 21:14:01;;;;;;;14.93;6.82;;;2.10;99.90;;;;;;5051455;28;20108;-93
2022/12/17 21:16:31;;;;;;;19.90;8.57;;;2.00;99.90;;;;;;5045085;28;20013;-93
2022/12/17 21:19:00;;;;;;;20.35;7.70;;;2.00;99.90;;;;;;5043598;28;20021;-93
2022/12/17 21:21:31;;;;;;;17.40;6.72;;;2.00;99.90;;;;;;5043965;28;20034;-93
2022/12/17 21:23:58;;;;;;;13.93;7.80;;;2.00;99.90;;;;;;5044381;28;20032;-93
2022/12/17 21:26:33;;;;;;;15.45;7.53;;;2.00;99.90;;;;;;5043772;28;20033;-93
2022/12/17 21:29:03;;;;;;;22.60;7.85;;;2.00;99.90;;;;;;5045057;28;20037;-94
2022/12/17 21:31:51;;;;;;;14.88;7.00;;;1.90;99.90;;;;;;5042704;28;20262;-93
2022/12/17 21:34:21;;;;;;;18.58;8.20;;;1.90;99.90;;;;;;5042766;28;20044;-92
2022/12/17 21:36:48;;;;;;;;;;;1.90;99.90;;;;;;5043346;28;20026;-92
2022/12/17 21:39:15;;;;;;;15.15;7.00;;;1.90;99.90;;;;;;5044080;28;19993;-92
2022/12/17 21:43:00;;;;;;;15.43;6.80;;;1.90;99.90;;;;;;5051694;28;20025;-95
2022/12/17 21:44:28;;;;;;;12.57;6.53;;;1.90;99.90;;;;;;5046443;28;20033;-93
2022/12/17 21:46:54;;;;;;;14.05;7.43;;;1.90;99.90;;;;;;5041469;28;20360;-93
2022/12/17 21:49:19;;;;;;;14.45;7.15;;;1.90;99.90;;;;;;5041584;28;20040;-94
2022/12/17 21:51:45;;;;;;;12.27;6.60;;;1.90;99.90;;;;;;5042555;28;20026;-94
2022/12/17 21:54:12;;;;;;;16.60;6.68;;;2.00;99.90;;;;;;5043854;28;20518;-96
2022/12/17 21:56:38;;;;;;;23.20;8.55;;;2.00;99.90;;;;;;5033848;28;20100;-94
2022/12/17 21:59:04;;;;;;;12.70;5.97;;;2.00;99.90;;;;;;5048158;28;20029;-94
2022/12/17 22:01:32;;;;;;;12.07;6.50;;;2.00;99.90;;;;;;5048231;28;20021;-92
2022/12/17 22:04:00;;;;;;;12.48;6.63;;;2.00;99.90;;;;;;5046888;28;20025;-93
2022/12/17 22:06:28;;;;;;;19.10;7.97;;;2.00;99.90;;;;;;5057964;28;20029;-92
2022/12/17 22:08:53;;;;;;;16.70;6.20;;;2.00;99.90;;;;;;5065894;28;20017;-95
2022/12/17 22:11:24;;;;;;;17.35;7.25;;;1.90;99.90;;;;;;5063154;28;20072;-93
2022/12/17 22:14:02;;;;;;;;;;;1.90;99.90;;;;;;5052283;28;20048;-94
2022/12/17 22:16:30;;;;;;;11.88;6.30;;;1.90;99.90;;;;;;5045737;28;19935;-94
2022/12/17 22:18:57;;;;;;;15.48;9.48;;;1.90;99.90;;;;;;5053211;28;20021;-93
2022/12/17 22:21:23;;;;;;;12.35;7.90;;;1.90;99.90;;;;;;5044883;28;20036;-93
2022/12/17 22:23:52;;;;;;;12.50;6.68;;;1.90;99.90;;;;;;5044845;28;20029;-94
2022/12/17 22:26:19;;;;;;;13.85;7.05;;;1.90;99.90;;;;;;5043397;28;20113;-94
2022/12/17 22:28:48;;;;;;;14.77;6.55;;;1.90;99.90;;;;;;5042682;28;20106;-94
2022/12/17 22:34:01;;;;;;;12.35;6.40;;;1.80;99.90;;;;;;5045023;28;20476;-92
2022/12/17 22:36:28;;;;;;;15.35;7.80;;;1.80;99.90;;;;;;5043121;28;20132;-93
2022/12/17 22:38:56;;;;;;;15.88;8.68;;;1.70;99.90;;;;;;5041027;28;20466;-93
2022/12/17 22:44:06;;;;;;;15.20;6.85;;;1.60;99.90;;;;;;5043365;28;20051;-93
2022/12/17 22:46:31;;;;;;;14.65;7.57;;;1.60;99.90;;;;;;5044094;28;20025;-94
2022/12/17 22:48:58;;;;;;;14.55;8.02;;;1.50;99.90;;;;;;5042810;28;20036;-93
2022/12/17 22:51:24;;;;;;;16.85;7.82;;;1.40;99.90;;;;;;5043901;28;20036;-95
2022/12/17 22:53:51;;;;;;;27.20;9.88;;;1.40;99.90;;;;;;5043832;28;20017;-94
2022/12/17 22:56:19;;;;;;;14.57;9.30;;;1.30;99.90;;;;;;5049358;28;20033;-94
2022/12/17 22:58:45;;;;;;;17.40;9.38;;;1.30;99.90;;;;;;5053621;28;20021;-94
2022/12/17 23:01:11;;;;;;;22.25;10.95;;;1.20;99.90;;;;;;5047189;28;20294;-94
2022/12/17 23:03:37;;;;;;;25.77;11.70;;;1.10;99.90;;;;;;5055496;28;20029;-93
2022/12/17 23:06:15;;;;;;;16.77;10.20;;;1.10;99.90;;;;;;5052032;28;20045;-94
2022/12/17 23:08:41;;;;;;;19.73;10.45;;;1.10;99.90;;;;;;5050778;28;20117;-94
2022/12/17 23:11:22;;;;;;;17.02;7.90;;;1.10;99.90;;;;;;5048717;28;20032;-93
2022/12/17 23:13:48;;;;;;;16.73;8.80;;;1.10;99.90;;;;;;5042974;28;20108;-94
2022/12/17 23:16:14;;;;;;;13.70;7.32;;;1.10;99.90;;;;;;5027668;28;20037;-94
2022/12/17 23:18:43;;;;;;;24.80;10.77;;;1.10;99.90;;;;;;5046974;28;20035;-94
2022/12/17 23:21:12;;;;;;;12.27;7.50;;;1.10;99.90;;;;;;5045563;28;20094;-94
2022/12/17 23:23:38;;;;;;;15.32;8.43;;;1.00;99.90;;;;;;5045246;28;20024;-93
2022/12/17 23:26:12;;;;;;;11.50;7.20;;;1.00;99.90;;;;;;5044914;28;20192;-93
2022/12/17 23:28:38;;;;;;;18.20;9.05;;;1.00;99.90;;;;;;5056322;28;20049;-94
2022/12/17 23:31:16;;;;;;;14.30;7.78;;;1.00;99.90;;;;;;5060318;28;20084;-93
2022/12/17 23:33:43;;;;;;;14.13;7.82;;;1.00;99.90;;;;;;5043614;28;20013;-94
2022/12/17 23:36:11;;;;;;;14.63;8.23;;;1.00;99.90;;;;;;5043254;28;20434;-93
2022/12/17 23:38:38;;;;;;;16.27;8.95;;;1.00;99.90;;;;;;5045925;28;20032;-93
2022/12/17 23:41:12;;;;;;;12.73;8.43;;;1.00;99.90;;;;;;5046847;28;20025;-92
2022/12/17 23:43:38;;;;;;;18.65;8.90;;;0.90;99.90;;;;;;5046647;28;20033;-94
2022/12/17 23:46:06;;;;;;;16.15;8.80;;;0.90;99.90;;;;;;5045922;28;20033;-93
2022/12/17 23:48:35;;;;;;;21.50;9.43;;;0.90;99.90;;;;;;5043431;28;20395;-93
2022/12/17 23:51:01;;;;;;;17.88;8.32;;;0.90;99.90;;;;;;5045250;28;20017;-95
2022/12/17 23:53:28;;;;;;;30.70;9.98;;;0.80;99.90;;;;;;5044828;28;20013;-94
2022/12/17 23:55:54;;;;;;;41.75;13.77;;;0.80;99.90;;;;;;5043957;28;20029;-93
2022/12/17 23:58:20;;;;;;;68.63;19.27;;;0.80;99.90;;;;;;5043921;28;20032;-93
